Flugplatz Berlin-Schönefeld International

Bericht für EDDB

vom 17.10. um 10:20 UTC

Wind 7 kt aus 250°

Sichtweite 10 km oder mehr

gute Sicht, keine Wolken < 5000 ft, keine CB, keine Wettererscheinungen (CAVOK)

Temperatur 21.0°C

Taupunkt 13.0°C

Luftfeuchtigkeit 60%

Luftdruck 1021 hPa

keine wesentliche Wetteränderung innerhalb den nächsten 2 Stunden zu erwarten

EDDB 171020Z 25007KT CAVOK 21/13 Q1021 NOSIG

Prognose für EDDB

vom 17.10. um 05:00 UTC

Zwischen 06:00 UTC und 08:00 UTC

Wind 4 kt aus 190°

Sichtweite 10 km oder mehr

keine signifikanten Wettererscheinungen

keine Wolken


Zwischen 08:00 und 11:00 UTC übergehend zu

Wind 6 kt aus 270°

Sichtweite 10 km oder mehr

keine signifikanten Wettererscheinungen

keine Wolken


Zwischen 21:00 und 00:00 UTC übergehend zu

variable Windrichtung mit 3 kt

Sichtweite 10 km oder mehr

keine signifikanten Wettererscheinungen

keine Wolken


Am 18.10. zwischen 03:00 UTC und 06:00 UTC zeitweise

Sichtweite 800 m

Nebelschwaden

TAF EDDB 170500Z 1706/1806 19004KT CAVOK BECMG 1708/1711 27006KT BECMG 1721/1724 VRB03KT TEMPO 1803/1806 0800 BCFG
Impressum